sensor_id;sensor_type;location;lat;lon;timestamp;P1;durP1;ratioP1;P2;durP2;ratioP2
55497;SDS011;41357;52.806;18.268;2022-08-11T00:05:05;7.00;;;3.03;;
55497;SDS011;41357;52.806;18.268;2022-08-11T00:07:31;6.53;;;3.20;;
55497;SDS011;41357;52.806;18.268;2022-08-11T00:09:58;5.88;;;3.20;;
55497;SDS011;41357;52.806;18.268;2022-08-11T00:12:24;6.90;;;2.60;;
55497;SDS011;41357;52.806;18.268;2022-08-11T00:14:54;4.88;;;2.80;;
55497;SDS011;41357;52.806;18.268;2022-08-11T00:17:21;10.93;;;3.08;;
55497;SDS011;41357;52.806;18.268;2022-08-11T00:19:51;9.07;;;3.33;;
55497;SDS011;41357;52.806;18.268;2022-08-11T00:22:19;4.50;;;2.80;;
55497;SDS011;41357;52.806;18.268;2022-08-11T00:24:45;10.32;;;2.92;;
55497;SDS011;41357;52.806;18.268;2022-08-11T00:27:12;5.55;;;3.30;;
55497;SDS011;41357;52.806;18.268;2022-08-11T00:29:38;9.95;;;3.05;;
55497;SDS011;41357;52.806;18.268;2022-08-11T00:32:04;9.27;;;3.35;;
55497;SDS011;41357;52.806;18.268;2022-08-11T00:34:32;3.55;;;2.53;;
55497;SDS011;41357;52.806;18.268;2022-08-11T00:37:05;8.25;;;3.30;;
55497;SDS011;41357;52.806;18.268;2022-08-11T00:39:33;11.77;;;3.30;;
55497;SDS011;41357;52.806;18.268;2022-08-11T00:42:44;5.40;;;3.13;;
55497;SDS011;41357;52.806;18.268;2022-08-11T00:55:30;6.63;;;3.28;;
55497;SDS011;41357;52.806;18.268;2022-08-11T01:00:56;7.75;;;3.22;;
55497;SDS011;41357;52.806;18.268;2022-08-11T01:03:39;7.15;;;2.90;;
55497;SDS011;41357;52.806;18.268;2022-08-11T01:20:06;5.72;;;3.35;;
55497;SDS011;41357;52.806;18.268;2022-08-11T01:28:12;6.03;;;3.20;;
55497;SDS011;41357;52.806;18.268;2022-08-11T01:41:21;4.57;;;3.15;;
55497;SDS011;41357;52.806;18.268;2022-08-11T01:49:34;4.90;;;3.40;;
55497;SDS011;41357;52.806;18.268;2022-08-11T01:54:52;10.40;;;3.72;;
55497;SDS011;41357;52.806;18.268;2022-08-11T02:00:07;6.30;;;3.17;;
55497;SDS011;41357;52.806;18.268;2022-08-11T02:14:41;5.75;;;3.08;;
55497;SDS011;41357;52.806;18.268;2022-08-11T02:22:29;5.93;;;3.10;;
55497;SDS011;41357;52.806;18.268;2022-08-11T02:25:23;11.48;;;3.35;;
55497;SDS011;41357;52.806;18.268;2022-08-11T02:27:56;10.48;;;3.30;;
55497;SDS011;41357;52.806;18.268;2022-08-11T02:30:24;9.40;;;3.78;;
55497;SDS011;41357;52.806;18.268;2022-08-11T02:41:07;6.38;;;3.58;;
55497;SDS011;41357;52.806;18.268;2022-08-11T02:49:25;9.38;;;3.70;;
55497;SDS011;41357;52.806;18.268;2022-08-11T02:52:19;6.60;;;3.28;;
55497;SDS011;41357;52.806;18.268;2022-08-11T02:57:34;8.32;;;3.47;;
55497;SDS011;41357;52.806;18.268;2022-08-11T03:00:04;4.90;;;3.22;;
55497;SDS011;41357;52.806;18.268;2022-08-11T03:13:31;14.10;;;3.58;;
55497;SDS011;41357;52.806;18.268;2022-08-11T03:16:20;9.82;;;3.80;;
55497;SDS011;41357;52.806;18.268;2022-08-11T03:19:10;9.10;;;3.70;;
55497;SDS011;41357;52.806;18.268;2022-08-11T03:24:10;5.82;;;3.67;;
55497;SDS011;41357;52.806;18.268;2022-08-11T03:26:53;8.45;;;3.80;;
55497;SDS011;41357;52.806;18.268;2022-08-11T03:29:39;9.90;;;4.03;;
55497;SDS011;41357;52.806;18.268;2022-08-11T03:32:25;7.55;;;3.78;;
55497;SDS011;41357;52.806;18.268;2022-08-11T03:34:53;10.88;;;4.20;;
55497;SDS011;41357;52.806;18.268;2022-08-11T03:37:55;6.03;;;3.63;;
55497;SDS011;41357;52.806;18.268;2022-08-11T03:43:10;11.07;;;3.70;;
55497;SDS011;41357;52.806;18.268;2022-08-11T03:53:31;7.00;;;4.20;;
55497;SDS011;41357;52.806;18.268;2022-08-11T04:14:13;8.07;;;4.68;;
55497;SDS011;41357;52.806;18.268;2022-08-11T04:46:27;15.18;;;6.90;;
55497;SDS011;41357;52.806;18.268;2022-08-11T05:00:55;12.27;;;7.22;;
55497;SDS011;41357;52.806;18.268;2022-08-11T05:03:52;13.63;;;7.43;;
55497;SDS011;41357;52.806;18.268;2022-08-11T05:14:23;12.13;;;6.35;;
55497;SDS011;41357;52.806;18.268;2022-08-11T05:17:12;13.65;;;7.38;;
55497;SDS011;41357;52.806;18.268;2022-08-11T05:19:58;10.90;;;7.15;;
55497;SDS011;41357;52.806;18.268;2022-08-11T05:22:46;11.68;;;7.38;;
55497;SDS011;41357;52.806;18.268;2022-08-11T05:25:31;14.88;;;7.50;;
55497;SDS011;41357;52.806;18.268;2022-08-11T05:31:23;12.13;;;6.65;;
55497;SDS011;41357;52.806;18.268;2022-08-11T05:34:10;9.15;;;6.40;;
55497;SDS011;41357;52.806;18.268;2022-08-11T05:37:56;13.70;;;7.28;;
55497;SDS011;41357;52.806;18.268;2022-08-11T05:39:54;13.07;;;6.97;;
55497;SDS011;41357;52.806;18.268;2022-08-11T05:42:47;10.40;;;6.03;;
55497;SDS011;41357;52.806;18.268;2022-08-11T05:45:33;19.48;;;6.63;;
55497;SDS011;41357;52.806;18.268;2022-08-11T05:48:18;11.55;;;5.47;;
55497;SDS011;41357;52.806;18.268;2022-08-11T05:51:03;8.60;;;4.88;;
55497;SDS011;41357;52.806;18.268;2022-08-11T05:53:52;9.93;;;5.53;;
55497;SDS011;41357;52.806;18.268;2022-08-11T05:56:46;12.85;;;5.78;;
55497;SDS011;41357;52.806;18.268;2022-08-11T05:59:15;10.48;;;6.07;;
55497;SDS011;41357;52.806;18.268;2022-08-11T06:01:42;9.30;;;5.47;;
55497;SDS011;41357;52.806;18.268;2022-08-11T06:04:12;9.68;;;4.80;;
55497;SDS011;41357;52.806;18.268;2022-08-11T06:09:14;8.75;;;4.80;;
55497;SDS011;41357;52.806;18.268;2022-08-11T06:11:45;13.27;;;5.60;;
55497;SDS011;41357;52.806;18.268;2022-08-11T06:14:11;11.63;;;5.00;;
55497;SDS011;41357;52.806;18.268;2022-08-11T06:16:42;12.63;;;5.18;;
55497;SDS011;41357;52.806;18.268;2022-08-11T06:19:11;14.30;;;5.15;;
55497;SDS011;41357;52.806;18.268;2022-08-11T06:21:42;8.68;;;4.10;;
55497;SDS011;41357;52.806;18.268;2022-08-11T06:24:09;8.18;;;4.45;;
55497;SDS011;41357;52.806;18.268;2022-08-11T06:26:36;10.38;;;4.38;;
55497;SDS011;41357;52.806;18.268;2022-08-11T06:29:03;8.98;;;4.35;;
55497;SDS011;41357;52.806;18.268;2022-08-11T06:31:30;5.38;;;4.07;;
55497;SDS011;41357;52.806;18.268;2022-08-11T06:37:07;7.70;;;3.53;;
55497;SDS011;41357;52.806;18.268;2022-08-11T06:41:59;8.20;;;3.42;;
55497;SDS011;41357;52.806;18.268;2022-08-11T06:44:29;8.07;;;3.33;;
55497;SDS011;41357;52.806;18.268;2022-08-11T06:47:03;12.77;;;5.00;;
55497;SDS011;41357;52.806;18.268;2022-08-11T06:49:37;6.03;;;3.30;;
55497;SDS011;41357;52.806;18.268;2022-08-11T06:52:32;9.15;;;3.17;;
55497;SDS011;41357;52.806;18.268;2022-08-11T06:55:03;8.43;;;3.17;;
55497;SDS011;41357;52.806;18.268;2022-08-11T06:57:36;10.57;;;3.50;;
55497;SDS011;41357;52.806;18.268;2022-08-11T07:00:23;7.97;;;3.70;;
55497;SDS011;41357;52.806;18.268;2022-08-11T07:14:00;12.80;;;5.68;;
55497;SDS011;41357;52.806;18.268;2022-08-11T07:16:46;16.25;;;9.30;;
55497;SDS011;41357;52.806;18.268;2022-08-11T07:19:14;8.68;;;7.40;;
55497;SDS011;41357;52.806;18.268;2022-08-11T07:22:01;12.48;;;9.43;;
55497;SDS011;41357;52.806;18.268;2022-08-11T07:24:48;12.13;;;7.93;;
55497;SDS011;41357;52.806;18.268;2022-08-11T07:27:47;9.05;;;6.70;;
55497;SDS011;41357;52.806;18.268;2022-08-11T07:30:34;10.30;;;7.95;;
55497;SDS011;41357;52.806;18.268;2022-08-11T07:33:02;11.63;;;8.82;;
55497;SDS011;41357;52.806;18.268;2022-08-11T07:35:37;8.55;;;6.40;;
55497;SDS011;41357;52.806;18.268;2022-08-11T07:38:19;10.68;;;6.95;;
55497;SDS011;41357;52.806;18.268;2022-08-11T07:40:46;8.95;;;6.88;;
55497;SDS011;41357;52.806;18.268;2022-08-11T07:43:13;5.15;;;4.65;;
55497;SDS011;41357;52.806;18.268;2022-08-11T07:45:43;5.55;;;4.60;;
55497;SDS011;41357;52.806;18.268;2022-08-11T07:48:28;8.18;;;4.25;;
55497;SDS011;41357;52.806;18.268;2022-08-11T07:51:17;8.52;;;3.42;;
55497;SDS011;41357;52.806;18.268;2022-08-11T07:54:03;6.00;;;3.60;;
55497;SDS011;41357;52.806;18.268;2022-08-11T07:56:36;6.10;;;3.65;;
55497;SDS011;41357;52.806;18.268;2022-08-11T07:59:03;4.90;;;3.75;;
55497;SDS011;41357;52.806;18.268;2022-08-11T08:01:48;10.15;;;3.38;;
55497;SDS011;41357;52.806;18.268;2022-08-11T08:04:34;5.93;;;3.80;;
55497;SDS011;41357;52.806;18.268;2022-08-11T08:07:19;5.50;;;3.70;;
55497;SDS011;41357;52.806;18.268;2022-08-11T08:10:05;2.97;;;2.75;;
55497;SDS011;41357;52.806;18.268;2022-08-11T08:12:51;6.47;;;3.03;;
55497;SDS011;41357;52.806;18.268;2022-08-11T08:15:36;3.08;;;2.30;;
55497;SDS011;41357;52.806;18.268;2022-08-11T08:18:22;4.03;;;2.25;;
55497;SDS011;41357;52.806;18.268;2022-08-11T08:20:49;3.30;;;1.95;;
55497;SDS011;41357;52.806;18.268;2022-08-11T08:23:19;5.72;;;2.10;;
55497;SDS011;41357;52.806;18.268;2022-08-11T08:26:05;6.75;;;1.90;;
55497;SDS011;41357;52.806;18.268;2022-08-11T08:28:51;3.40;;;1.92;;
55497;SDS011;41357;52.806;18.268;2022-08-11T08:31:17;5.30;;;1.90;;
55497;SDS011;41357;52.806;18.268;2022-08-11T08:33:44;2.70;;;1.50;;
55497;SDS011;41357;52.806;18.268;2022-08-11T08:36:10;2.97;;;1.42;;
55497;SDS011;41357;52.806;18.268;2022-08-11T08:38:39;2.28;;;1.70;;
55497;SDS011;41357;52.806;18.268;2022-08-11T08:41:06;6.95;;;1.60;;
55497;SDS011;41357;52.806;18.268;2022-08-11T08:43:33;2.65;;;1.30;;
55497;SDS011;41357;52.806;18.268;2022-08-11T08:46:00;6.82;;;1.38;;
55497;SDS011;41357;52.806;18.268;2022-08-11T08:48:27;3.40;;;1.50;;
55497;SDS011;41357;52.806;18.268;2022-08-11T08:50:56;3.78;;;1.60;;
55497;SDS011;41357;52.806;18.268;2022-08-11T08:53:45;4.95;;;1.77;;
55497;SDS011;41357;52.806;18.268;2022-08-11T08:56:13;5.10;;;1.30;;
55497;SDS011;41357;52.806;18.268;2022-08-11T08:58:39;2.85;;;1.48;;
55497;SDS011;41357;52.806;18.268;2022-08-11T09:01:06;3.05;;;1.20;;
55497;SDS011;41357;52.806;18.268;2022-08-11T09:03:35;2.25;;;1.40;;
55497;SDS011;41357;52.806;18.268;2022-08-11T09:06:02;4.03;;;1.10;;
55497;SDS011;41357;52.806;18.268;2022-08-11T09:08:29;5.28;;;1.20;;
55497;SDS011;41357;52.806;18.268;2022-08-11T09:10:56;6.22;;;1.40;;
55497;SDS011;41357;52.806;18.268;2022-08-11T09:13:41;1.70;;;1.10;;
55497;SDS011;41357;52.806;18.268;2022-08-11T09:16:08;2.65;;;1.15;;
55497;SDS011;41357;52.806;18.268;2022-08-11T09:18:36;2.58;;;1.23;;
55497;SDS011;41357;52.806;18.268;2022-08-11T09:21:02;4.65;;;1.30;;
55497;SDS011;41357;52.806;18.268;2022-08-11T09:23:29;2.25;;;1.60;;
55497;SDS011;41357;52.806;18.268;2022-08-11T09:26:14;4.10;;;1.38;;
55497;SDS011;41357;52.806;18.268;2022-08-11T09:29:00;4.47;;;1.10;;
55497;SDS011;41357;52.806;18.268;2022-08-11T09:31:29;4.40;;;1.40;;
55497;SDS011;41357;52.806;18.268;2022-08-11T09:33:57;2.28;;;1.35;;
55497;SDS011;41357;52.806;18.268;2022-08-11T09:36:24;2.40;;;1.55;;
55497;SDS011;41357;52.806;18.268;2022-08-11T09:39:09;4.30;;;1.23;;
55497;SDS011;41357;52.806;18.268;2022-08-11T09:41:55;2.90;;;1.35;;
55497;SDS011;41357;52.806;18.268;2022-08-11T09:44:21;4.18;;;1.48;;
55497;SDS011;41357;52.806;18.268;2022-08-11T09:47:06;2.58;;;1.42;;
55497;SDS011;41357;52.806;18.268;2022-08-11T09:49:39;4.75;;;1.50;;
55497;SDS011;41357;52.806;18.268;2022-08-11T09:52:05;4.85;;;1.52;;
55497;SDS011;41357;52.806;18.268;2022-08-11T09:54:33;3.13;;;1.27;;
55497;SDS011;41357;52.806;18.268;2022-08-11T09:56:59;3.15;;;1.50;;
55497;SDS011;41357;52.806;18.268;2022-08-11T09:59:44;2.85;;;1.60;;
55497;SDS011;41357;52.806;18.268;2022-08-11T10:02:10;2.15;;;1.40;;
55497;SDS011;41357;52.806;18.268;2022-08-11T10:04:39;3.63;;;2.15;;
55497;SDS011;41357;52.806;18.268;2022-08-11T10:07:06;7.70;;;1.60;;
55497;SDS011;41357;52.806;18.268;2022-08-11T10:09:35;3.90;;;1.65;;
55497;SDS011;41357;52.806;18.268;2022-08-11T10:12:03;2.95;;;1.80;;
55497;SDS011;41357;52.806;18.268;2022-08-11T10:14:31;4.35;;;2.03;;
55497;SDS011;41357;52.806;18.268;2022-08-11T10:17:18;2.55;;;1.85;;
55497;SDS011;41357;52.806;18.268;2022-08-11T10:19:46;2.50;;;1.70;;
55497;SDS011;41357;52.806;18.268;2022-08-11T10:22:13;4.40;;;1.70;;
55497;SDS011;41357;52.806;18.268;2022-08-11T10:24:58;6.15;;;1.80;;
55497;SDS011;41357;52.806;18.268;2022-08-11T10:27:44;3.33;;;1.70;;
55497;SDS011;41357;52.806;18.268;2022-08-11T10:30:13;4.05;;;1.80;;
55497;SDS011;41357;52.806;18.268;2022-08-11T10:32:59;4.60;;;1.90;;
55497;SDS011;41357;52.806;18.268;2022-08-11T10:35:44;7.93;;;2.10;;
55497;SDS011;41357;52.806;18.268;2022-08-11T10:38:11;6.50;;;1.98;;
55497;SDS011;41357;52.806;18.268;2022-08-11T10:40:39;5.90;;;1.60;;
55497;SDS011;41357;52.806;18.268;2022-08-11T10:43:10;4.80;;;1.77;;
55497;SDS011;41357;52.806;18.268;2022-08-11T10:45:41;3.38;;;1.92;;
55497;SDS011;41357;52.806;18.268;2022-08-11T10:48:27;3.47;;;1.50;;
55497;SDS011;41357;52.806;18.268;2022-08-11T10:50:53;3.88;;;1.50;;
55497;SDS011;41357;52.806;18.268;2022-08-11T10:53:41;6.10;;;1.50;;
55497;SDS011;41357;52.806;18.268;2022-08-11T10:56:34;2.78;;;1.35;;
55497;SDS011;41357;52.806;18.268;2022-08-11T10:59:19;4.60;;;1.58;;
55497;SDS011;41357;52.806;18.268;2022-08-11T11:01:46;3.60;;;1.60;;
55497;SDS011;41357;52.806;18.268;2022-08-11T11:04:13;4.32;;;1.55;;
55497;SDS011;41357;52.806;18.268;2022-08-11T11:06:50;5.45;;;1.60;;
55497;SDS011;41357;52.806;18.268;2022-08-11T11:09:19;2.70;;;1.40;;
55497;SDS011;41357;52.806;18.268;2022-08-11T11:11:48;2.70;;;1.70;;
55497;SDS011;41357;52.806;18.268;2022-08-11T11:14:35;5.57;;;1.60;;
55497;SDS011;41357;52.806;18.268;2022-08-11T11:17:31;2.33;;;1.50;;
55497;SDS011;41357;52.806;18.268;2022-08-11T11:20:20;3.22;;;1.45;;
55497;SDS011;41357;52.806;18.268;2022-08-11T11:22:48;5.78;;;1.52;;
55497;SDS011;41357;52.806;18.268;2022-08-11T11:30:54;3.22;;;1.55;;
55497;SDS011;41357;52.806;18.268;2022-08-11T11:36:05;1.88;;;1.02;;
55497;SDS011;41357;52.806;18.268;2022-08-11T11:38:34;2.95;;;1.35;;
55497;SDS011;41357;52.806;18.268;2022-08-11T11:41:00;2.50;;;1.10;;
55497;SDS011;41357;52.806;18.268;2022-08-11T11:43:46;2.00;;;1.23;;
55497;SDS011;41357;52.806;18.268;2022-08-11T11:46:13;2.63;;;1.40;;
55497;SDS011;41357;52.806;18.268;2022-08-11T11:48:39;3.25;;;1.50;;
55497;SDS011;41357;52.806;18.268;2022-08-11T11:51:06;2.15;;;1.00;;
55497;SDS011;41357;52.806;18.268;2022-08-11T11:53:33;4.80;;;1.30;;
55497;SDS011;41357;52.806;18.268;2022-08-11T11:55:59;3.30;;;1.60;;
55497;SDS011;41357;52.806;18.268;2022-08-11T11:58:27;2.45;;;1.27;;
55497;SDS011;41357;52.806;18.268;2022-08-11T12:01:12;3.42;;;1.40;;
55497;SDS011;41357;52.806;18.268;2022-08-11T12:03:43;3.40;;;2.65;;
55497;SDS011;41357;52.806;18.268;2022-08-11T12:06:10;2.05;;;1.23;;
55497;SDS011;41357;52.806;18.268;2022-08-11T12:08:38;3.78;;;1.63;;
55497;SDS011;41357;52.806;18.268;2022-08-11T12:11:05;5.10;;;1.60;;
55497;SDS011;41357;52.806;18.268;2022-08-11T12:13:51;5.07;;;1.40;;
55497;SDS011;41357;52.806;18.268;2022-08-11T12:16:18;5.40;;;1.35;;
55497;SDS011;41357;52.806;18.268;2022-08-11T12:18:46;7.20;;;1.33;;
55497;SDS011;41357;52.806;18.268;2022-08-11T12:21:13;2.13;;;1.23;;
55497;SDS011;41357;52.806;18.268;2022-08-11T12:23:41;5.05;;;1.30;;
55497;SDS011;41357;52.806;18.268;2022-08-11T12:26:26;6.28;;;1.45;;
55497;SDS011;41357;52.806;18.268;2022-08-11T12:29:12;4.43;;;1.38;;
55497;SDS011;41357;52.806;18.268;2022-08-11T12:31:38;4.80;;;2.00;;
55497;SDS011;41357;52.806;18.268;2022-08-11T12:34:10;4.93;;;1.30;;
55497;SDS011;41357;52.806;18.268;2022-08-11T12:36:44;2.22;;;1.20;;
55497;SDS011;41357;52.806;18.268;2022-08-11T12:39:11;3.65;;;1.42;;
55497;SDS011;41357;52.806;18.268;2022-08-11T12:41:38;1.92;;;1.25;;
55497;SDS011;41357;52.806;18.268;2022-08-11T12:44:24;2.67;;;1.38;;
55497;SDS011;41357;52.806;18.268;2022-08-11T12:47:11;2.22;;;1.20;;
55497;SDS011;41357;52.806;18.268;2022-08-11T12:49:43;8.60;;;1.33;;
55497;SDS011;41357;52.806;18.268;2022-08-11T12:52:28;3.17;;;1.15;;
55497;SDS011;41357;52.806;18.268;2022-08-11T12:54:59;1.95;;;1.40;;
55497;SDS011;41357;52.806;18.268;2022-08-11T12:57:34;4.22;;;1.60;;
55497;SDS011;41357;52.806;18.268;2022-08-11T13:00:20;2.95;;;1.38;;
55497;SDS011;41357;52.806;18.268;2022-08-11T13:03:06;7.32;;;1.50;;
55497;SDS011;41357;52.806;18.268;2022-08-11T13:05:52;4.15;;;1.08;;
55497;SDS011;41357;52.806;18.268;2022-08-11T13:08:19;2.78;;;1.40;;
55497;SDS011;41357;52.806;18.268;2022-08-11T13:10:46;2.65;;;1.40;;
55497;SDS011;41357;52.806;18.268;2022-08-11T13:13:33;2.05;;;1.42;;
55497;SDS011;41357;52.806;18.268;2022-08-11T13:16:00;5.47;;;1.40;;
55497;SDS011;41357;52.806;18.268;2022-08-11T13:18:26;4.20;;;1.48;;
55497;SDS011;41357;52.806;18.268;2022-08-11T13:20:53;3.05;;;1.70;;
55497;SDS011;41357;52.806;18.268;2022-08-11T13:23:21;1.65;;;1.30;;
55497;SDS011;41357;52.806;18.268;2022-08-11T13:25:47;5.88;;;1.30;;
55497;SDS011;41357;52.806;18.268;2022-08-11T13:28:14;8.50;;;1.38;;
55497;SDS011;41357;52.806;18.268;2022-08-11T13:30:41;3.88;;;1.40;;
55497;SDS011;41357;52.806;18.268;2022-08-11T13:33:26;5.18;;;1.20;;
55497;SDS011;41357;52.806;18.268;2022-08-11T13:35:53;6.80;;;1.45;;
55497;SDS011;41357;52.806;18.268;2022-08-11T13:38:20;6.50;;;1.33;;
55497;SDS011;41357;52.806;18.268;2022-08-11T13:40:50;2.20;;;1.10;;
55497;SDS011;41357;52.806;18.268;2022-08-11T13:43:18;3.70;;;1.33;;
55497;SDS011;41357;52.806;18.268;2022-08-11T13:45:45;1.92;;;1.23;;
55497;SDS011;41357;52.806;18.268;2022-08-11T13:48:12;2.22;;;1.33;;
55497;SDS011;41357;52.806;18.268;2022-08-11T13:50:39;4.95;;;1.13;;
55497;SDS011;41357;52.806;18.268;2022-08-11T13:53:25;5.45;;;1.50;;
55497;SDS011;41357;52.806;18.268;2022-08-11T13:55:52;2.42;;;1.40;;
55497;SDS011;41357;52.806;18.268;2022-08-11T13:58:19;8.50;;;1.65;;
55497;SDS011;41357;52.806;18.268;2022-08-11T14:00:47;4.50;;;1.30;;
55497;SDS011;41357;52.806;18.268;2022-08-11T14:03:14;6.18;;;1.15;;
55497;SDS011;41357;52.806;18.268;2022-08-11T14:05:45;1.70;;;1.20;;
55497;SDS011;41357;52.806;18.268;2022-08-11T14:08:16;4.35;;;1.50;;
55497;SDS011;41357;52.806;18.268;2022-08-11T14:10:44;2.47;;;1.20;;
55497;SDS011;41357;52.806;18.268;2022-08-11T14:13:11;2.97;;;1.30;;
55497;SDS011;41357;52.806;18.268;2022-08-11T14:15:59;2.63;;;1.27;;
55497;SDS011;41357;52.806;18.268;2022-08-11T14:18:30;3.47;;;1.20;;
55497;SDS011;41357;52.806;18.268;2022-08-11T14:20:57;8.57;;;1.50;;
55497;SDS011;41357;52.806;18.268;2022-08-11T14:23:51;2.22;;;1.17;;
55497;SDS011;41357;52.806;18.268;2022-08-11T14:26:23;6.53;;;1.40;;
55497;SDS011;41357;52.806;18.268;2022-08-11T14:34:13;1.20;;;0.90;;
55497;SDS011;41357;52.806;18.268;2022-08-11T14:36:43;4.13;;;1.30;;
55497;SDS011;41357;52.806;18.268;2022-08-11T14:39:14;3.33;;;1.58;;
55497;SDS011;41357;52.806;18.268;2022-08-11T14:41:43;3.92;;;1.27;;
55497;SDS011;41357;52.806;18.268;2022-08-11T14:44:28;2.60;;;1.40;;
55497;SDS011;41357;52.806;18.268;2022-08-11T14:47:13;3.78;;;1.00;;
55497;SDS011;41357;52.806;18.268;2022-08-11T14:49:40;2.92;;;1.30;;
55497;SDS011;41357;52.806;18.268;2022-08-11T14:52:11;5.13;;;1.48;;
55497;SDS011;41357;52.806;18.268;2022-08-11T14:54:40;2.28;;;1.48;;
55497;SDS011;41357;52.806;18.268;2022-08-11T14:57:26;2.28;;;1.20;;
55497;SDS011;41357;52.806;18.268;2022-08-11T14:59:52;1.80;;;0.95;;
55497;SDS011;41357;52.806;18.268;2022-08-11T15:02:20;3.60;;;1.33;;
55497;SDS011;41357;52.806;18.268;2022-08-11T15:05:05;3.85;;;1.20;;
55497;SDS011;41357;52.806;18.268;2022-08-11T15:07:32;1.40;;;1.05;;
55497;SDS011;41357;52.806;18.268;2022-08-11T15:10:00;2.47;;;1.13;;
55497;SDS011;41357;52.806;18.268;2022-08-11T15:12:26;1.88;;;1.02;;
55497;SDS011;41357;52.806;18.268;2022-08-11T15:14:53;1.80;;;1.10;;
55497;SDS011;41357;52.806;18.268;2022-08-11T15:17:43;2.95;;;1.40;;
55497;SDS011;41357;52.806;18.268;2022-08-11T15:20:12;3.17;;;1.10;;
55497;SDS011;41357;52.806;18.268;2022-08-11T15:22:58;2.33;;;1.20;;
55497;SDS011;41357;52.806;18.268;2022-08-11T15:25:44;3.67;;;1.40;;
55497;SDS011;41357;52.806;18.268;2022-08-11T15:28:10;1.70;;;1.20;;
55497;SDS011;41357;52.806;18.268;2022-08-11T15:30:56;3.42;;;1.27;;
55497;SDS011;41357;52.806;18.268;2022-08-11T15:33:42;3.28;;;1.27;;
55497;SDS011;41357;52.806;18.268;2022-08-11T15:36:29;2.95;;;1.30;;
55497;SDS011;41357;52.806;18.268;2022-08-11T15:39:21;7.82;;;1.45;;
55497;SDS011;41357;52.806;18.268;2022-08-11T15:41:50;5.35;;;1.33;;
55497;SDS011;41357;52.806;18.268;2022-08-11T15:44:36;2.22;;;1.33;;
55497;SDS011;41357;52.806;18.268;2022-08-11T15:47:24;4.07;;;1.40;;
55497;SDS011;41357;52.806;18.268;2022-08-11T15:49:52;2.05;;;1.15;;
55497;SDS011;41357;52.806;18.268;2022-08-11T15:52:24;1.42;;;1.10;;
55497;SDS011;41357;52.806;18.268;2022-08-11T15:54:52;2.03;;;1.13;;
55497;SDS011;41357;52.806;18.268;2022-08-11T15:57:18;1.75;;;1.33;;
55497;SDS011;41357;52.806;18.268;2022-08-11T16:00:04;4.18;;;1.25;;
55497;SDS011;41357;52.806;18.268;2022-08-11T16:02:50;4.25;;;1.30;;
55497;SDS011;41357;52.806;18.268;2022-08-11T16:05:20;4.03;;;1.15;;
55497;SDS011;41357;52.806;18.268;2022-08-11T16:07:47;3.33;;;1.00;;
55497;SDS011;41357;52.806;18.268;2022-08-11T16:10:15;1.90;;;1.30;;
55497;SDS011;41357;52.806;18.268;2022-08-11T16:12:49;4.35;;;1.48;;
55497;SDS011;41357;52.806;18.268;2022-08-11T16:15:44;2.10;;;1.17;;
55497;SDS011;41357;52.806;18.268;2022-08-11T16:18:32;5.70;;;1.00;;
55497;SDS011;41357;52.806;18.268;2022-08-11T16:21:09;5.50;;;1.30;;
55497;SDS011;41357;52.806;18.268;2022-08-11T16:23:36;5.43;;;1.17;;
55497;SDS011;41357;52.806;18.268;2022-08-11T16:26:04;5.65;;;1.30;;
55497;SDS011;41357;52.806;18.268;2022-08-11T16:28:30;3.65;;;1.52;;
55497;SDS011;41357;52.806;18.268;2022-08-11T16:30:58;1.90;;;1.30;;
55497;SDS011;41357;52.806;18.268;2022-08-11T16:33:25;3.00;;;1.45;;
55497;SDS011;41357;52.806;18.268;2022-08-11T16:35:52;2.33;;;1.23;;
55497;SDS011;41357;52.806;18.268;2022-08-11T16:38:38;2.20;;;1.15;;
55497;SDS011;41357;52.806;18.268;2022-08-11T16:41:05;2.88;;;1.48;;
55497;SDS011;41357;52.806;18.268;2022-08-11T16:43:33;3.95;;;1.27;;
55497;SDS011;41357;52.806;18.268;2022-08-11T16:46:19;4.68;;;1.40;;
55497;SDS011;41357;52.806;18.268;2022-08-11T16:49:06;2.78;;;1.60;;
55497;SDS011;41357;52.806;18.268;2022-08-11T16:51:32;3.67;;;1.20;;
55497;SDS011;41357;52.806;18.268;2022-08-11T16:53:58;2.50;;;1.27;;
55497;SDS011;41357;52.806;18.268;2022-08-11T17:04:19;1.80;;;1.40;;
55497;SDS011;41357;52.806;18.268;2022-08-11T17:07:06;1.55;;;1.15;;
55497;SDS011;41357;52.806;18.268;2022-08-11T17:09:41;5.13;;;1.17;;
55497;SDS011;41357;52.806;18.268;2022-08-11T17:12:29;2.92;;;1.23;;
55497;SDS011;41357;52.806;18.268;2022-08-11T17:15:16;4.80;;;1.90;;
55497;SDS011;41357;52.806;18.268;2022-08-11T17:18:02;6.70;;;2.92;;
55497;SDS011;41357;52.806;18.268;2022-08-11T17:20:28;8.77;;;3.38;;
55497;SDS011;41357;52.806;18.268;2022-08-11T17:22:55;8.88;;;3.83;;
55497;SDS011;41357;52.806;18.268;2022-08-11T17:25:40;4.75;;;2.53;;
55497;SDS011;41357;52.806;18.268;2022-08-11T17:28:08;7.93;;;2.88;;
55497;SDS011;41357;52.806;18.268;2022-08-11T17:30:35;5.93;;;2.80;;
55497;SDS011;41357;52.806;18.268;2022-08-11T17:33:21;6.40;;;2.10;;
55497;SDS011;41357;52.806;18.268;2022-08-11T17:36:07;5.20;;;2.10;;
55497;SDS011;41357;52.806;18.268;2022-08-11T17:38:35;5.43;;;2.25;;
55497;SDS011;41357;52.806;18.268;2022-08-11T17:41:02;4.25;;;2.70;;
55497;SDS011;41357;52.806;18.268;2022-08-11T17:43:47;6.28;;;2.28;;
55497;SDS011;41357;52.806;18.268;2022-08-11T17:46:34;11.82;;;1.77;;
55497;SDS011;41357;52.806;18.268;2022-08-11T17:49:19;15.23;;;2.10;;
55497;SDS011;41357;52.806;18.268;2022-08-11T17:51:47;7.85;;;1.38;;
55497;SDS011;41357;52.806;18.268;2022-08-11T17:54:33;8.05;;;2.72;;
55497;SDS011;41357;52.806;18.268;2022-08-11T17:57:19;3.70;;;2.10;;
55497;SDS011;41357;52.806;18.268;2022-08-11T18:00:04;2.33;;;1.40;;
55497;SDS011;41357;52.806;18.268;2022-08-11T18:02:41;2.60;;;1.20;;
55497;SDS011;41357;52.806;18.268;2022-08-11T18:05:28;4.55;;;1.65;;
55497;SDS011;41357;52.806;18.268;2022-08-11T18:07:55;4.68;;;1.55;;
55497;SDS011;41357;52.806;18.268;2022-08-11T18:10:40;5.00;;;1.23;;
55497;SDS011;41357;52.806;18.268;2022-08-11T18:13:26;4.78;;;1.52;;
55497;SDS011;41357;52.806;18.268;2022-08-11T18:16:12;7.25;;;1.98;;
55497;SDS011;41357;52.806;18.268;2022-08-11T18:18:57;5.60;;;1.52;;
55497;SDS011;41357;52.806;18.268;2022-08-11T18:21:43;3.72;;;1.67;;
55497;SDS011;41357;52.806;18.268;2022-08-11T18:24:29;5.97;;;2.00;;
55497;SDS011;41357;52.806;18.268;2022-08-11T18:27:14;9.43;;;2.70;;
55497;SDS011;41357;52.806;18.268;2022-08-11T18:29:59;15.80;;;4.38;;
55497;SDS011;41357;52.806;18.268;2022-08-11T18:32:45;11.13;;;4.30;;
55497;SDS011;41357;52.806;18.268;2022-08-11T18:35:31;12.93;;;3.42;;
55497;SDS011;41357;52.806;18.268;2022-08-11T18:38:17;14.43;;;2.63;;
55497;SDS011;41357;52.806;18.268;2022-08-11T18:41:02;13.55;;;3.65;;
55497;SDS011;41357;52.806;18.268;2022-08-11T18:43:49;20.38;;;3.78;;
55497;SDS011;41357;52.806;18.268;2022-08-11T18:46:35;15.25;;;3.25;;
55497;SDS011;41357;52.806;18.268;2022-08-11T18:49:22;13.35;;;3.15;;
55497;SDS011;41357;52.806;18.268;2022-08-11T18:52:09;8.13;;;2.75;;
55497;SDS011;41357;52.806;18.268;2022-08-11T18:54:55;11.23;;;2.72;;
55497;SDS011;41357;52.806;18.268;2022-08-11T18:57:41;10.45;;;2.60;;
55497;SDS011;41357;52.806;18.268;2022-08-11T19:00:27;8.48;;;2.80;;
55497;SDS011;41357;52.806;18.268;2022-08-11T19:03:13;11.68;;;3.30;;
55497;SDS011;41357;52.806;18.268;2022-08-11T19:06:00;6.05;;;3.47;;
55497;SDS011;41357;52.806;18.268;2022-08-11T19:08:46;7.60;;;2.80;;
55497;SDS011;41357;52.806;18.268;2022-08-11T19:11:32;9.25;;;3.13;;